Time;durP1;ratioP1;P1;durP2;ratioP2;P2;SDS_P1;SDS_P2;PMS_P1;PMS_P2;Temp;Humidity;BMP_temperature;BMP_pressure;BME280_temperature;BME280_humidity;BME280_pressure;Samples;Min_cycle;Max_cycle;Signal;HPM_P1;HPM_P2
2021/09/01 00:01:03;;;;;;;5.88;2.40;;;;;;;12.56;100.00;101870.22;4988975;28;20046;-85
2021/09/01 00:03:36;;;;;;;5.28;2.55;;;;;;;12.65;100.00;101893.25;4982034;28;20051;-83
2021/09/01 00:06:09;;;;;;;5.75;2.45;;;;;;;12.66;100.00;101883.13;4996722;28;20058;-83
2021/09/01 00:08:42;;;;;;;8.10;2.80;;;;;;;12.68;100.00;101892.69;5005776;28;20046;-84
2021/09/01 00:11:12;;;;;;;5.43;2.65;;;;;;;12.70;100.00;101890.50;4981323;28;20087;-84
2021/09/01 00:13:45;;;;;;;4.40;2.50;;;;;;;12.68;100.00;101891.88;4978532;28;20390;-84
2021/09/01 00:16:26;;;;;;;4.78;2.63;;;;;;;12.71;100.00;101896.81;4985531;28;20058;-85
2021/09/01 00:19:01;;;;;;;6.93;2.97;;;;;;;12.72;100.00;101902.00;4980288;28;20069;-84
2021/09/01 00:21:30;;;;;;;4.43;2.63;;;;;;;12.73;100.00;101905.56;4989297;28;20479;-84
2021/09/01 00:24:03;;;;;;;5.32;2.60;;;;;;;12.72;100.00;101910.22;4991231;28;20050;-84
2021/09/01 00:26:38;;;;;;;5.18;2.75;;;;;;;12.73;100.00;101905.56;4984063;28;20078;-85
2021/09/01 00:29:11;;;;;;;7.10;3.10;;;;;;;12.74;100.00;101908.03;4985440;28;20054;-86
2021/09/01 00:31:44;;;;;;;4.90;2.50;;;;;;;12.74;100.00;101908.03;4985167;28;20429;-82
2021/09/01 00:34:18;;;;;;;4.20;2.45;;;;;;;12.70;100.00;101909.63;4980943;28;20049;-86
2021/09/01 00:36:51;;;;;;;5.15;2.70;;;;;;;12.74;100.00;101912.66;4983713;28;20047;-84
2021/09/01 00:39:24;;;;;;;4.28;2.40;;;;;;;12.75;100.00;101906.13;4990958;28;20532;-85
2021/09/01 00:42:00;;;;;;;5.13;2.72;;;;;;;12.83;100.00;101907.53;4986577;28;20074;-84
2021/09/01 00:44:33;;;;;;;4.22;2.35;;;;;;;12.85;100.00;101914.38;4981381;28;20058;-85
2021/09/01 00:47:04;;;;;;;3.75;2.30;;;;;;;12.81;100.00;101913.25;4980041;28;20396;-84
2021/09/01 00:49:37;;;;;;;5.45;2.65;;;;;;;12.73;100.00;101920.06;4986383;28;20050;-84
2021/09/01 00:52:10;;;;;;;3.97;2.30;;;;;;;12.70;100.00;101908.81;4986690;28;20051;-82
2021/09/01 00:54:44;;;;;;;4.70;2.58;;;;;;;12.64;100.00;101920.81;4980171;28;20042;-84
2021/09/01 00:57:21;;;;;;;4.40;2.60;;;;;;;12.65;100.00;101922.44;4983375;28;20106;-85
2021/09/01 00:59:54;;;;;;;4.60;2.40;;;;;;;12.67;100.00;101918.34;4989122;28;20062;-85
2021/09/01 01:02:27;;;;;;;5.13;2.75;;;;;;;12.68;100.00;101921.94;4985608;28;20049;-84
2021/09/01 01:05:01;;;;;;;5.95;2.75;;;;;;;12.62;100.00;101918.31;5001392;28;20394;-85
2021/09/01 01:07:35;;;;;;;5.10;2.58;;;;;;;12.68;100.00;101919.19;4988829;28;20051;-85
2021/09/01 01:10:04;;;;;;;4.82;2.50;;;;;;;12.63;100.00;101917.25;4985104;28;20072;-85
2021/09/01 01:12:38;;;;;;;3.85;2.33;;;;;;;12.67;100.00;101926.56;4983008;28;20054;-85
2021/09/01 01:15:12;;;;;;;6.10;2.67;;;;;;;12.68;100.00;101927.41;4982137;28;20047;-84
2021/09/01 01:17:45;;;;;;;4.03;2.50;;;;;;;12.70;100.00;101923.28;4982952;28;20508;-84
2021/09/01 01:20:18;;;;;;;4.45;2.60;;;;;;;12.71;100.00;101926.88;4987120;28;20061;-84
2021/09/01 01:22:46;;;;;;;4.13;2.30;;;;;;;12.65;100.00;101926.00;4993124;28;20050;-85
2021/09/01 01:25:37;;;;;;;6.70;2.45;;;;;;;12.61;100.00;101924.88;4992184;28;20038;-85
2021/09/01 01:28:11;;;;;;;9.88;2.72;;;;;;;12.63;100.00;101924.63;4994434;28;20537;-84
2021/09/01 01:30:44;;;;;;;4.68;2.38;;;;;;;12.59;100.00;101919.69;4983127;28;20061;-85
2021/09/01 01:33:18;;;;;;;4.25;2.67;;;;;;;12.52;100.00;101910.06;4986651;28;20055;-86
2021/09/01 01:35:51;;;;;;;6.50;2.38;;;;;;;12.64;100.00;101923.53;4985064;28;20458;-87
2021/09/01 01:38:25;;;;;;;5.03;2.50;;;;;;;12.48;100.00;101917.97;4994272;28;20057;-87
2021/09/01 01:40:59;;;;;;;6.60;2.60;;;;;;;12.48;100.00;101926.16;4989428;28;20061;-83
2021/09/01 01:43:36;;;;;;;5.95;2.90;;;;;;;12.47;100.00;101929.16;4991940;28;20058;-84
2021/09/01 01:46:09;;;;;;;5.57;2.80;;;;;;;12.48;100.00;101922.59;4986658;28;20525;-86
2021/09/01 01:48:42;;;;;;;4.78;2.95;;;;;;;12.50;100.00;101934.09;4989601;28;20057;-85
2021/09/01 01:51:16;;;;;;;5.22;2.60;;;;;;;12.54;100.00;101933.31;4989007;28;20053;-85
2021/09/01 01:53:49;;;;;;;3.58;2.50;;;;;;;12.61;100.00;101943.16;4994968;28;20042;-83
2021/09/01 01:56:24;;;;;;;7.95;2.80;;;;;;;12.56;100.00;101943.97;4993576;28;20054;-85
2021/09/01 01:58:57;;;;;;;4.05;2.60;;;;;;;12.61;100.00;101949.47;4987450;28;20051;-84
2021/09/01 02:01:25;;;;;;;6.25;2.90;;;;;;;12.49;100.00;101946.91;4985646;28;20050;-85
2021/09/01 02:03:58;;;;;;;4.88;2.70;;;;;;;12.52;100.00;101931.91;4992091;28;20058;-85
2021/09/01 02:06:31;;;;;;;4.45;2.50;;;;;;;12.69;100.00;101945.41;4986355;28;20050;-85
2021/09/01 02:09:04;;;;;;;5.18;2.95;;;;;;;12.63;100.00;101930.09;4993427;28;20046;-85
2021/09/01 02:11:39;;;;;;;4.32;2.42;;;;;;;12.69;100.00;101934.47;4994592;28;20051;-84
2021/09/01 02:14:12;;;;;;;5.95;2.63;;;;;;;12.65;100.00;101933.34;4991948;28;20050;-84
2021/09/01 02:16:40;;;;;;;5.22;2.55;;;;;;;12.69;100.00;101934.47;4988418;28;20074;-84
2021/09/01 02:19:13;;;;;;;4.50;2.15;;;;;;;12.81;100.00;101931.56;4981127;28;20050;-85
2021/09/01 02:21:46;;;;;;;4.43;2.35;;;;;;;12.68;100.00;101935.59;4993433;28;20051;-84
2021/09/01 02:24:19;;;;;;;4.97;2.20;;;;;;;12.67;100.00;101933.94;4985047;28;20054;-84
2021/09/01 02:26:54;;;;;;;3.60;2.13;;;;;;;12.67;100.00;101923.00;4988608;28;20406;-83
2021/09/01 02:29:23;;;;;;;4.30;2.28;;;;;;;12.57;100.00;101912.84;4984328;28;20061;-83
2021/09/01 02:31:56;;;;;;;3.65;2.10;;;;;;;12.59;100.00;101922.44;4983938;28;20103;-83
2021/09/01 02:34:29;;;;;;;3.45;2.13;;;;;;;12.47;100.00;101918.22;4986198;28;20042;-82
2021/09/01 02:37:03;;;;;;;6.30;2.80;;;;;;;12.46;100.00;101917.41;4990886;28;20051;-83
2021/09/01 02:39:36;;;;;;;5.45;2.40;;;;;;;12.45;100.00;101914.94;4992389;28;20058;-83
2021/09/01 02:42:06;;;;;;;4.97;2.28;;;;;;;12.37;100.00;101908.06;4991736;28;20042;-84
2021/09/01 02:44:39;;;;;;;4.85;2.42;;;;;;;12.38;100.00;101913.25;4988824;28;20440;-83
2021/09/01 02:47:07;;;;;;;4.65;2.50;;;;;;;12.33;100.00;101913.22;4991464;28;20054;-82
2021/09/01 02:49:41;;;;;;;4.60;2.47;;;;;;;12.32;100.00;101913.47;4985792;28;20069;-83
2021/09/01 02:52:14;;;;;;;5.78;2.95;;;;;;;12.24;100.00;101923.78;4993234;28;20055;-84
2021/09/01 02:54:47;;;;;;;6.35;2.85;;;;;;;12.36;100.00;101907.25;4992298;28;20050;-85
2021/09/01 02:57:22;;;;;;;5.35;2.70;;;;;;;12.38;100.00;101910.53;4992476;28;20054;-83
2021/09/01 02:59:50;;;;;;;4.57;2.50;;;;;;;12.38;100.00;101909.72;4983705;28;20066;-84
2021/09/01 03:02:23;;;;;;;4.90;2.40;;;;;;;12.34;100.00;101914.84;4984940;28;20050;-83
2021/09/01 03:04:56;;;;;;;4.35;2.45;;;;;;;12.34;100.00;101914.03;4987207;28;20053;-83
2021/09/01 03:07:29;;;;;;;6.90;2.75;;;;;;;12.40;100.00;101904.78;4986903;28;20069;-82
2021/09/01 03:10:03;;;;;;;5.10;2.47;;;;;;;12.39;100.00;101903.97;4990687;28;20488;-83
2021/09/01 03:12:38;;;;;;;4.03;2.53;;;;;;;12.39;100.00;101903.97;4985197;28;20047;-83
2021/09/01 03:15:12;;;;;;;6.18;2.60;;;;;;;12.41;100.00;101901.81;4998764;28;20051;-84
2021/09/01 03:17:40;;;;;;;4.18;2.40;;;;;;;12.46;100.00;101900.22;4977703;28;20065;-83
2021/09/01 03:20:13;;;;;;;6.65;2.70;;;;;;;12.47;100.00;101901.84;4973486;28;20066;-83
2021/09/01 03:22:46;;;;;;;5.90;2.70;;;;;;;12.46;100.00;101913.88;4988029;28;20058;-83
2021/09/01 03:25:19;;;;;;;6.85;2.63;;;;;;;12.34;100.00;101905.84;4972829;28;20062;-83
2021/09/01 03:27:49;;;;;;;3.97;2.40;;;;;;;12.37;100.00;101916.25;4987536;28;20585;-83
2021/09/01 03:30:17;;;;;;;5.28;2.70;;;;;;;12.51;100.00;101919.34;4986475;28;20039;-82
2021/09/01 03:32:45;;;;;;;4.22;2.30;;;;;;;12.52;100.00;101921.00;4986740;28;20769;-84
2021/09/01 03:35:14;;;;;;;5.68;2.42;;;;;;;12.47;100.00;101924.53;4988488;28;20055;-85
2021/09/01 03:37:47;;;;;;;4.22;2.38;;;;;;;12.51;100.00;101922.91;4982759;28;20047;-83
2021/09/01 03:40:20;;;;;;;4.82;2.15;;;;;;;12.61;100.00;101926.78;4987587;28;20057;-83
2021/09/01 03:42:55;;;;;;;5.22;2.17;;;;;;;12.52;100.00;101921.00;4985688;28;20046;-84
2021/09/01 03:45:28;;;;;;;4.60;2.50;;;;;;;12.46;100.00;101927.53;4982421;28;20050;-83
2021/09/01 03:48:01;;;;;;;4.63;2.17;;;;;;;12.48;100.00;101920.69;4983297;28;20058;-83
2021/09/01 03:50:34;;;;;;;6.50;2.58;;;;;;;12.44;100.00;101924.22;4991117;28;20046;-83
2021/09/01 03:53:08;;;;;;;4.18;2.22;;;;;;;12.44;100.00;101925.03;4988549;28;20055;-84
2021/09/01 03:55:41;;;;;;;7.47;2.42;;;;;;;12.43;100.00;101915.22;4988633;28;20046;-84
2021/09/01 03:58:11;;;;;;;4.28;2.13;;;;;;;12.50;100.00;101929.44;4986731;28;20050;-83
2021/09/01 04:00:45;;;;;;;4.68;2.30;;;;;;;12.36;100.00;101909.97;4983411;28;20058;-84
2021/09/01 04:03:13;;;;;;;5.85;2.40;;;;;;;12.45;100.00;101923.94;4980695;28;20055;-82
2021/09/01 04:05:46;;;;;;;4.72;2.10;;;;;;;12.38;100.00;101920.63;4991976;28;20053;-83
2021/09/01 04:08:19;;;;;;;5.10;2.40;;;;;;;12.43;100.00;101928.84;4985595;28;20419;-83
2021/09/01 04:10:47;;;;;;;4.43;2.20;;;;;;;12.41;100.00;101918.22;4997538;28;20055;-82
2021/09/01 04:13:22;;;;;;;3.78;2.13;;;;;;;12.52;100.00;101919.06;5005459;28;20661;-85
2021/09/01 04:15:55;;;;;;;4.72;2.05;;;;;;;12.45;100.00;101928.59;4985291;28;20038;-83
2021/09/01 04:18:28;;;;;;;4.28;2.33;;;;;;;12.32;100.00;101925.22;4987702;28;20055;-83
2021/09/01 04:21:01;;;;;;;4.35;2.05;;;;;;;12.41;100.00;101931.00;4989713;28;20045;-83
2021/09/01 04:23:35;;;;;;;5.60;2.40;;;;;;;12.35;100.00;101937.53;4983579;28;20418;-82
2021/09/01 04:26:08;;;;;;;4.53;2.20;;;;;;;12.41;100.00;101941.94;4990817;28;20057;-86
2021/09/01 04:28:43;;;;;;;4.32;2.10;;;;;;;12.46;100.00;101943.91;4988331;28;20054;-83
2021/09/01 04:31:16;;;;;;;6.15;2.40;;;;;;;12.40;100.00;101945.75;4987142;28;20065;-84
2021/09/01 04:33:49;;;;;;;5.07;2.10;;;;;;;12.36;100.00;101948.19;4978550;28;20051;-85
2021/09/01 04:36:22;;;;;;;5.28;2.13;;;;;;;12.30;100.00;101942.94;4982582;28;20050;-82
2021/09/01 04:38:55;;;;;;;5.50;2.20;;;;;;;12.35;100.00;101949.25;4989753;28;20051;-83
2021/09/01 04:41:28;;;;;;;4.63;2.05;;;;;;;12.41;100.00;101950.13;4983419;28;20051;-84
2021/09/01 04:44:03;;;;;;;3.10;2.00;;;;;;;12.42;100.00;101954.50;4980673;28;20065;-82
2021/09/01 04:46:37;;;;;;;5.43;2.50;;;;;;;12.37;100.00;101952.56;4983476;28;21304;-83
2021/09/01 04:49:10;;;;;;;4.47;2.35;;;;;;;12.33;100.00;101951.44;4992323;28;20054;-84
2021/09/01 04:51:43;;;;;;;4.35;2.38;;;;;;;12.34;100.00;101957.72;4983311;28;20495;-84
2021/09/01 04:54:16;;;;;;;3.92;2.35;;;;;;;12.32;100.00;101959.88;4981358;28;20062;-84
2021/09/01 04:56:54;;;;;;;4.75;2.30;;;;;;;12.39;100.00;101961.31;4986858;28;20057;-84
2021/09/01 04:59:28;;;;;;;3.67;2.10;;;;;;;12.40;100.00;101960.22;4990168;28;20046;-83
2021/09/01 05:02:01;;;;;;;4.65;2.10;;;;;;;12.48;100.00;101956.19;4985274;28;20054;-83
2021/09/01 05:04:35;;;;;;;4.00;1.98;;;;;;;12.48;100.00;101956.19;4982112;28;20042;-84
2021/09/01 05:07:08;;;;;;;4.03;2.10;;;;;;;12.44;100.00;101960.50;4986349;28;20066;-82
2021/09/01 05:09:41;;;;;;;4.22;2.08;;;;;;;12.46;100.00;101952.09;4986288;28;20058;-84
2021/09/01 05:12:15;;;;;;;4.75;2.40;;;;;;;12.41;100.00;101952.84;4987346;28;20054;-86
2021/09/01 05:14:49;;;;;;;3.83;2.17;;;;;;;12.51;100.00;101958.41;4992228;28;20057;-84
2021/09/01 05:17:23;;;;;;;5.15;2.50;;;;;;;12.50;100.00;101951.28;4986098;28;20050;-85
2021/09/01 05:19:56;;;;;;;5.00;2.15;;;;;;;12.54;100.00;101970.69;4983304;28;20049;-85
2021/09/01 05:22:32;;;;;;;5.75;2.17;;;;;;;12.40;100.00;101962.97;4989109;28;20054;-86
2021/09/01 05:25:07;;;;;;;4.20;2.05;;;;;;;12.36;100.00;101972.75;4990579;28;20061;-85
2021/09/01 05:27:42;;;;;;;5.57;2.22;;;;;;;12.37;100.00;101981.75;4983658;28;20053;-85
2021/09/01 05:30:15;;;;;;;5.53;2.40;;;;;;;12.36;100.00;101974.66;4990134;28;20414;-84
2021/09/01 05:32:49;;;;;;;;;;;;;;;12.44;100.00;101976.09;4986419;28;20046;-85
2021/09/01 05:35:22;;;;;;;4.75;2.20;;;;;;;12.44;100.00;101971.44;4985464;28;19998;-85
2021/09/01 05:37:50;;;;;;;6.03;2.30;;;;;;;12.46;100.00;101980.22;4989734;28;20053;-87
2021/09/01 05:40:25;;;;;;;3.63;2.10;;;;;;;12.49;100.00;101978.88;4988393;28;20399;-83
2021/09/01 05:42:59;;;;;;;3.45;2.10;;;;;;;12.48;100.00;101983.47;5002182;28;20065;-85
2021/09/01 05:45:30;;;;;;;3.70;2.05;;;;;;;12.50;100.00;101980.53;4987239;28;20050;-83
2021/09/01 05:47:59;;;;;;;5.78;2.20;;;;;;;12.51;100.00;101984.88;4981105;28;20525;-83
2021/09/01 05:50:29;;;;;;;4.75;2.08;;;;;;;12.51;100.00;101991.19;4989027;28;20054;-85
2021/09/01 05:52:58;;;;;;;4.00;2.15;;;;;;;12.54;100.00;101993.38;4987344;28;20053;-83
2021/09/01 05:55:34;;;;;;;5.32;2.55;;;;;;;12.50;100.00;101994.97;4983704;28;20050;-84
2021/09/01 05:58:04;;;;;;;5.00;2.38;;;;;;;12.44;100.00;101987.00;4993579;28;20042;-83
2021/09/01 06:00:41;;;;;;;6.75;2.40;;;;;;;12.56;100.00;101999.38;4989541;28;20387;-83
2021/09/01 06:03:20;;;;;;;4.53;2.40;;;;;;;12.53;100.00;101999.09;4989371;28;20054;-84
2021/09/01 06:05:57;;;;;;;3.45;2.10;;;;;;;12.65;100.00;101997.03;4990331;28;20046;-84
2021/09/01 06:08:34;;;;;;;4.63;2.22;;;;;;;12.62;100.00;101996.72;5001870;28;20084;-83
2021/09/01 06:11:08;;;;;;;6.72;2.38;;;;;;;12.58;100.00;101999.13;4994063;28;20431;-83
2021/09/01 06:13:41;;;;;;;5.45;2.60;;;;;;;12.65;100.00;101999.75;4989667;28;20058;-84
2021/09/01 06:16:16;;;;;;;5.85;2.60;;;;;;;12.67;100.00;102002.22;4993216;28;20058;-83
2021/09/01 06:18:49;;;;;;;3.67;2.17;;;;;;;12.72;100.00;101994.06;4979057;28;20035;-84
2021/09/01 06:21:23;;;;;;;5.22;2.30;;;;;;;12.82;100.00;101990.59;4993023;28;20046;-85
2021/09/01 06:23:53;;;;;;;4.95;2.33;;;;;;;12.87;100.00;101990.59;4995832;28;20402;-83
2021/09/01 06:26:23;;;;;;;4.50;2.40;;;;;;;12.89;100.00;101997.44;4986276;28;20418;-84
2021/09/01 06:28:57;;;;;;;4.60;2.03;;;;;;;13.02;100.00;101987.97;4987937;28;20038;-83
2021/09/01 06:31:35;;;;;;;4.57;1.90;;;;;;;12.98;100.00;102000.53;4993475;28;20054;-86
2021/09/01 06:34:03;;;;;;;4.30;2.25;;;;;;;13.09;100.00;102002.22;4991672;28;20050;-85
2021/09/01 06:36:32;;;;;;;4.70;2.28;;;;;;;13.23;100.00;101999.84;4985023;28;20047;-84
2021/09/01 06:39:09;;;;;;;3.35;2.00;;;;;;;13.27;100.00;102000.97;4991829;28;20052;-84
2021/09/01 06:41:43;;;;;;;3.13;2.00;;;;;;;13.32;100.00;101994.69;4981209;28;20490;-86
2021/09/01 06:44:16;;;;;;;3.70;1.90;;;;;;;13.36;100.00;102000.47;4957243;28;20544;-83
2021/09/01 06:46:57;;;;;;;4.55;1.90;;;;;;;13.41;100.00;102008.72;4979567;28;20050;-85
2021/09/01 06:49:30;;;;;;;3.15;1.75;;;;;;;13.52;100.00;102004.09;4988214;28;20050;-85
2021/09/01 06:52:03;;;;;;;3.88;2.00;;;;;;;13.64;100.00;102001.13;4980880;28;20054;-85
2021/09/01 06:54:37;;;;;;;2.72;1.70;;;;;;;13.71;100.00;102007.19;4978590;28;20077;-86
2021/09/01 06:57:10;;;;;;;4.18;1.95;;;;;;;13.71;100.00;101999.81;4980793;28;20058;-83
2021/09/01 06:59:43;;;;;;;5.07;2.00;;;;;;;13.89;100.00;102003.13;4973273;28;20046;-84
2021/09/01 07:02:18;;;;;;;3.67;1.88;;;;;;;13.86;100.00;102003.66;4972967;28;20101;-85
2021/09/01 07:04:51;;;;;;;4.20;1.88;;;;;;;13.96;100.00;102000.94;4972000;28;20580;-84
2021/09/01 07:07:19;;;;;;;3.42;1.60;;;;;;;14.06;100.00;102002.91;4976547;28;20073;-86
2021/09/01 07:09:52;;;;;;;3.60;1.80;;;;;;;13.95;100.00;102002.88;4976912;28;20708;-84
2021/09/01 07:12:27;;;;;;;3.90;2.00;;;;;;;14.07;100.00;102002.63;4974079;28;20062;-85
2021/09/01 07:14:55;;;;;;;2.85;1.50;;;;;;;14.10;100.00;102004.81;4971155;28;20062;-85
2021/09/01 07:17:30;;;;;;;4.03;1.60;;;;;;;14.11;100.00;102003.75;4968341;28;20054;-85
2021/09/01 07:20:29;;;;;;;3.20;1.70;;;;;;;14.05;100.00;102004.00;4975581;28;20058;-84
2021/09/01 07:23:03;;;;;;;3.80;1.70;;;;;;;14.20;100.00;102003.19;4978041;28;20054;-82
2021/09/01 07:25:32;;;;;;;3.22;1.52;;;;;;;14.18;100.00;102008.13;4978038;28;20061;-83
2021/09/01 07:28:06;;;;;;;2.75;1.50;;;;;;;14.17;100.00;102010.03;4974413;28;20058;-83
2021/09/01 07:30:41;;;;;;;3.05;1.60;;;;;;;14.32;100.00;102014.72;4971661;28;20042;-84
2021/09/01 07:33:16;;;;;;;3.72;1.50;;;;;;;14.61;99.42;102001.28;4970072;28;20526;-84
2021/09/01 07:35:53;;;;;;;3.40;1.48;;;;;;;14.56;100.00;102009.50;4971266;28;20057;-81
2021/09/01 07:38:26;;;;;;;2.47;1.40;;;;;;;14.54;100.00;102011.72;4976265;28;20061;-83
2021/09/01 07:40:59;;;;;;;3.05;1.30;;;;;;;14.59;100.00;101998.00;4974812;28;20053;-85
2021/09/01 07:43:33;;;;;;;3.13;1.40;;;;;;;14.63;100.00;102015.56;4947658;28;20062;-83
2021/09/01 07:46:11;;;;;;;2.95;1.50;;;;;;;14.82;100.00;102019.66;4973753;28;20045;-83
2021/09/01 07:48:46;;;;;;;2.53;1.40;;;;;;;14.75;100.00;102023.50;4972654;28;20058;-86
2021/09/01 07:51:19;;;;;;;2.67;1.40;;;;;;;15.01;99.39;102026.22;4974568;28;20058;-87
2021/09/01 07:53:54;;;;;;;3.05;1.48;;;;;;;14.95;98.53;102028.13;4974599;28;20058;-85
2021/09/01 07:56:27;;;;;;;2.15;1.30;;;;;;;15.06;98.03;102022.66;4973738;28;20050;-84
2021/09/01 07:59:00;;;;;;;3.50;1.70;;;;;;;15.05;96.83;102029.22;4971511;28;20478;-85
2021/09/01 08:01:35;;;;;;;2.83;1.45;;;;;;;15.29;94.29;102033.00;4972064;28;20050;-84
2021/09/01 08:04:05;;;;;;;2.50;1.50;;;;;;;15.00;95.14;102031.97;4975964;28;21442;-82
2021/09/01 08:06:38;;;;;;;3.53;1.65;;;;;;;14.96;96.55;102046.22;4977316;28;21706;-83
2021/09/01 08:09:07;;;;;;;2.40;1.40;;;;;;;15.19;94.55;102043.19;4973459;28;20050;-83
2021/09/01 08:11:35;;;;;;;2.88;1.38;;;;;;;15.23;94.36;102052.50;4977765;28;20053;-85
2021/09/01 08:14:23;;;;;;;3.20;1.40;;;;;;;15.05;93.61;102059.38;4974533;28;20054;-84
2021/09/01 08:16:57;;;;;;;2.55;1.38;;;;;;;14.98;94.97;102051.44;4971547;28;20054;-85
2021/09/01 08:19:31;;;;;;;4.13;1.60;;;;;;;15.02;95.91;102047.03;4972588;28;20057;-85
2021/09/01 08:22:00;;;;;;;2.30;1.40;;;;;;;15.16;94.17;102051.97;4972480;28;20054;-85
2021/09/01 08:24:33;;;;;;;2.80;1.50;;;;;;;15.08;95.54;102056.06;4975519;28;20066;-84
2021/09/01 08:27:07;;;;;;;2.42;1.58;;;;;;;15.11;95.28;102058.28;4972931;28;20059;-85
2021/09/01 08:29:41;;;;;;;2.80;1.55;;;;;;;15.01;94.35;102059.13;4975736;28;20076;-83
2021/09/01 08:32:14;;;;;;;2.83;1.52;;;;;;;15.06;94.04;102048.13;4975305;28;20722;-87
2021/09/01 08:34:48;;;;;;;2.42;1.48;;;;;;;15.28;93.27;102057.97;4975422;28;20084;-86
2021/09/01 08:37:24;;;;;;;1.60;1.27;;;;;;;15.32;94.69;102056.31;4972427;28;20058;-85
2021/09/01 08:40:00;;;;;;;2.05;1.50;;;;;;;15.39;93.16;102050.53;4973959;28;20050;-85
2021/09/01 08:42:28;;;;;;;2.92;1.58;;;;;;;15.32;93.42;102058.25;4950825;28;20058;-85
2021/09/01 08:45:02;;;;;;;1.83;1.40;;;;;;;15.25;92.99;102053.03;4969161;28;20430;-85
2021/09/01 08:47:40;;;;;;;2.58;1.55;;;;;;;15.26;92.20;102043.69;4970223;28;20054;-86
2021/09/01 08:50:15;;;;;;;2.15;1.30;;;;;;;15.34;92.45;102048.63;4975549;28;20057;-85
2021/09/01 08:52:43;;;;;;;2.10;1.40;;;;;;;15.56;92.41;102050.19;4971322;28;20138;-85
2021/09/01 08:55:13;;;;;;;2.03;1.20;;;;;;;15.55;91.46;102054.03;4969309;28;20577;-85
2021/09/01 08:57:46;;;;;;;3.55;1.30;;;;;;;15.51;91.45;102026.34;4972861;28;20073;-84
2021/09/01 09:00:19;;;;;;;2.70;1.50;;;;;;;15.62;92.70;102054.59;4972749;28;20046;-86
2021/09/01 09:02:56;;;;;;;2.20;1.23;;;;;;;15.74;91.43;102051.50;4968810;28;20057;-86
2021/09/01 09:05:39;;;;;;;2.17;1.33;;;;;;;15.81;89.90;102049.28;4971026;28;20058;-87
2021/09/01 09:08:09;;;;;;;1.88;1.30;;;;;;;15.65;90.07;102054.81;4970633;28;20399;-85
2021/09/01 09:10:44;;;;;;;2.22;1.27;;;;;;;15.76;90.50;102050.13;4969948;28;20058;-85
2021/09/01 09:13:15;;;;;;;2.78;1.30;;;;;;;16.04;89.20;102045.06;4980534;28;20053;-86
2021/09/01 09:15:44;;;;;;;2.00;1.27;;;;;;;15.92;90.71;102050.91;4973715;28;20478;-85
2021/09/01 09:18:27;;;;;;;2.33;1.30;;;;;;;16.12;90.00;102049.16;4979561;28;20558;-84
2021/09/01 09:21:18;;;;;;;2.10;1.35;;;;;;;16.23;89.33;102039.72;4971732;28;20050;-86
2021/09/01 09:23:54;;;;;;;1.88;1.20;;;;;;;16.26;90.77;102043.84;4971373;28;20050;-85
2021/09/01 09:26:25;;;;;;;2.30;1.27;;;;;;;16.28;91.07;102034.22;4973771;28;20054;-87
2021/09/01 09:29:12;;;;;;;1.60;1.25;;;;;;;16.40;87.68;102044.00;4974065;28;20676;-84
2021/09/01 09:31:58;;;;;;;2.30;1.30;;;;;;;16.45;88.63;102050.28;4977077;28;20061;-85
2021/09/01 09:34:34;;;;;;;1.90;1.40;;;;;;;16.67;88.41;102055.34;4974940;28;20050;-84
2021/09/01 09:37:11;;;;;;;2.22;1.20;;;;;;;16.51;85.45;102042.00;4984073;28;20045;-84
2021/09/01 09:39:46;;;;;;;3.17;1.30;;;;;;;16.69;87.16;102057.78;4972182;28;20064;-86
2021/09/01 09:42:29;;;;;;;2.22;1.27;;;;;;;16.70;85.29;102062.19;4973065;28;20066;-85
2021/09/01 09:44:58;;;;;;;2.35;1.30;;;;;;;16.86;85.63;102059.31;4945315;28;20069;-84
2021/09/01 09:47:46;;;;;;;1.52;1.20;;;;;;;17.08;86.90;102056.94;4967774;28;20066;-83
2021/09/01 09:50:19;;;;;;;1.60;1.00;;;;;;;17.19;83.93;102056.81;4954288;28;20054;-85
2021/09/01 09:52:56;;;;;;;3.20;1.23;;;;;;;17.22;82.52;102062.56;4969498;28;20050;-88
2021/09/01 09:55:30;;;;;;;1.33;1.15;;;;;;;17.08;82.82;102065.19;4972447;28;20073;-90
2021/09/01 09:58:04;;;;;;;1.63;1.05;;;;;;;17.29;81.39;102056.69;4954954;28;20054;-86
2021/09/01 10:00:38;;;;;;;1.40;1.10;;;;;;;17.38;82.32;102063.22;4973552;28;20740;-85
2021/09/01 10:03:07;;;;;;;1.27;1.10;;;;;;;17.35;83.20;102052.78;4954069;28;20061;-86
2021/09/01 10:05:35;;;;;;;1.05;0.95;;;;;;;17.53;81.78;102058.66;4956439;28;20066;-85
2021/09/01 10:08:10;;;;;;;2.08;1.00;;;;;;;17.67;81.76;102043.84;4972624;28;20061;-85
2021/09/01 10:10:39;;;;;;;1.52;1.00;;;;;;;17.77;78.15;102064.13;4974502;28;20069;-86
2021/09/01 10:13:14;;;;;;;1.30;0.93;;;;;;;17.61;77.02;102063.50;4976399;28;20875;-84
2021/09/01 10:15:48;;;;;;;0.95;0.88;;;;;;;17.74;77.69;102051.75;4960441;28;20059;-86
2021/09/01 10:18:21;;;;;;;1.67;0.80;;;;;;;17.62;76.94;102054.97;4955494;28;20066;-83
2021/09/01 10:20:55;;;;;;;0.95;0.80;;;;;;;17.75;77.58;102058.91;4953881;28;20051;-83
2021/09/01 10:23:41;;;;;;;1.40;1.00;;;;;;;17.86;77.52;102062.38;4952999;28;20051;-85
2021/09/01 10:26:29;;;;;;;2.05;0.90;;;;;;;17.88;78.04;102060.13;4952757;28;20430;-85
2021/09/01 10:29:02;;;;;;;1.23;0.70;;;;;;;17.90;76.26;102049.63;4957346;28;20054;-85
2021/09/01 10:31:36;;;;;;;0.80;0.80;;;;;;;17.99;74.68;102061.69;4952282;28;20566;-83
2021/09/01 10:34:20;;;;;;;0.60;0.60;;;;;;;18.08;71.71;102052.75;4956071;28;20071;-86
2021/09/01 10:36:55;;;;;;;2.60;0.70;;;;;;;18.20;74.69;102058.59;4952542;28;20055;-86
2021/09/01 10:39:47;;;;;;;1.45;0.85;;;;;;;18.39;72.60;102047.56;4954950;28;20059;-85
2021/09/01 10:42:37;;;;;;;0.70;0.70;;;;;;;18.48;73.77;102048.53;4953546;28;20055;-84
2021/09/01 10:45:16;;;;;;;0.75;0.75;;;;;;;18.41;76.58;102022.47;4948378;28;20073;-86
2021/09/01 10:48:08;;;;;;;0.75;0.70;;;;;;;18.61;72.42;102041.44;4951559;28;20055;-85
2021/09/01 10:50:40;;;;;;;0.90;0.63;;;;;;;18.53;71.05;102033.84;4953106;28;20058;-85
2021/09/01 10:53:19;;;;;;;0.85;0.73;;;;;;;18.53;68.27;102040.19;4956078;28;20768;-87
2021/09/01 10:56:04;;;;;;;0.75;0.70;;;;;;;18.53;66.80;102033.84;4969224;28;20050;-83
2021/09/01 10:58:39;;;;;;;0.70;0.70;;;;;;;18.48;69.59;102037.50;4952198;28;20053;-84
2021/09/01 11:01:16;;;;;;;1.02;0.80;;;;;;;18.65;71.05;102047.16;4951497;28;20047;-84
2021/09/01 11:03:52;;;;;;;0.85;0.70;;;;;;;18.76;72.08;102037.59;4952878;28;20062;-84
2021/09/01 11:06:27;;;;;;;0.70;0.70;;;;;;;18.89;65.40;102027.72;4952514;28;20061;-84
2021/09/01 11:09:07;;;;;;;0.77;0.70;;;;;;;18.77;67.56;102035.66;4955085;28;20058;-82
2021/09/01 11:11:52;;;;;;;0.60;0.60;;;;;;;18.95;67.74;102039.53;4946758;28;20050;-85
2021/09/01 11:14:34;;;;;;;1.10;0.75;;;;;;;19.09;65.16;102047.81;4951661;28;20495;-83
2021/09/01 11:17:09;;;;;;;0.68;0.68;;;;;;;18.94;63.39;102038.69;4953885;28;20053;-83
2021/09/01 11:19:44;;;;;;;0.60;0.60;;;;;;;19.09;65.90;102045.88;4954770;28;20051;-85
2021/09/01 11:22:14;;;;;;;0.77;0.60;;;;;;;19.10;66.85;102038.41;4955488;28;20062;-84
2021/09/01 11:24:48;;;;;;;0.68;0.68;;;;;;;19.19;66.79;102042.09;4954936;28;20383;-85
2021/09/01 11:27:24;;;;;;;0.68;0.68;;;;;;;19.11;66.10;102027.09;4960484;28;20046;-85
2021/09/01 11:30:01;;;;;;;2.35;0.77;;;;;;;19.23;65.69;102037.59;4955845;28;20051;-83
2021/09/01 11:32:39;;;;;;;1.02;0.73;;;;;;;19.06;66.58;102038.19;4949106;28;20708;-83
2021/09/01 11:35:11;;;;;;;0.70;0.70;;;;;;;19.16;68.44;102037.19;4950721;28;20055;-83
2021/09/01 11:37:39;;;;;;;1.05;0.75;;;;;;;19.19;68.42;102020.81;4960602;28;20062;-85
2021/09/01 11:40:13;;;;;;;1.20;0.85;;;;;;;19.26;68.78;102038.94;4953077;28;20062;-84
2021/09/01 11:42:51;;;;;;;0.80;0.80;;;;;;;19.35;67.11;102043.44;4927148;28;20051;-85
2021/09/01 11:45:25;;;;;;;1.10;0.80;;;;;;;19.29;68.89;102038.31;4950625;28;20609;-84
2021/09/01 11:47:59;;;;;;;1.38;0.80;;;;;;;19.35;67.46;102042.63;4954347;28;20065;-84
2021/09/01 11:50:42;;;;;;;0.82;0.70;;;;;;;19.36;67.90;102050.59;4950192;28;20055;-85